Time;durP1;ratioP1;P1;durP2;ratioP2;P2;SDS_P1;SDS_P2;PMS_P1;PMS_P2;Temp;Humidity;BMP_temperature;BMP_pressure;BME280_temperature;BME280_humidity;BME280_pressure;Samples;Min_cycle;Max_cycle;Signal;HPM_P1;HPM_P2
2022/01/12 00:01:45;;;;;;;11.07;8.00;;;;;;;3.70;73.56;100128.00;5072623;28;20196;-57
2022/01/12 00:04:12;;;;;;;11.40;8.13;;;;;;;3.69;73.35;100128.75;5073582;28;20288;-57
2022/01/12 00:06:39;;;;;;;12.07;8.83;;;;;;;3.66;74.45;100128.59;5073602;28;20262;-57
2022/01/12 00:09:07;;;;;;;8.30;6.63;;;;;;;3.60;73.03;100135.91;5073480;28;20295;-57
2022/01/12 00:11:34;;;;;;;10.27;7.50;;;;;;;3.62;73.68;100136.88;5073085;28;20203;-57
2022/01/12 00:14:01;;;;;;;12.33;7.70;;;;;;;3.63;74.13;100133.50;5073058;28;20193;-57
2022/01/12 00:16:30;;;;;;;9.47;6.67;;;;;;;3.64;73.43;100141.25;5073264;28;20288;-57
2022/01/12 00:18:57;;;;;;;9.10;6.93;;;;;;;3.57;72.49;100139.19;5072952;28;20755;-57
2022/01/12 00:21:24;;;;;;;8.77;7.13;;;;;;;3.61;73.60;100148.69;5073024;28;20628;-57
2022/01/12 00:23:51;;;;;;;10.43;7.10;;;;;;;3.64;73.94;100150.53;5073318;28;20182;-57
2022/01/12 00:34:31;;;;;;;11.07;6.40;;;;;;;3.37;73.27;100091.50;5072353;28;20310;-57
2022/01/12 00:36:58;;;;;;;10.00;7.47;;;;;;;3.64;73.32;100146.31;5072441;28;20262;-57
2022/01/12 00:39:25;;;;;;;9.40;7.10;;;;;;;3.58;74.13;100153.59;5072598;28;20315;-57
2022/01/12 00:41:52;;;;;;;10.37;7.43;;;;;;;3.58;73.96;100153.59;5072447;28;20350;-59
2022/01/12 00:44:22;;;;;;;14.10;7.77;;;;;;;3.49;74.16;100153.97;5072045;28;20707;-58
2022/01/12 00:46:51;;;;;;;9.30;7.03;;;;;;;3.49;75.55;100153.09;5072046;28;20207;-58
2022/01/12 00:49:19;;;;;;;12.77;8.13;;;;;;;3.47;73.73;100153.03;5071674;28;20651;-58
2022/01/12 00:51:47;;;;;;;9.97;7.50;;;;;;;3.43;75.26;100161.25;5069236;28;20286;-58
2022/01/12 00:54:14;;;;;;;9.30;7.27;;;;;;;3.37;75.67;100145.72;5059220;28;20199;-58
2022/01/12 00:56:41;;;;;;;9.27;6.70;;;;;;;3.31;74.61;100152.09;5051270;28;20197;-58
2022/01/12 00:59:08;;;;;;;9.30;7.57;;;;;;;3.37;74.60;100160.06;5052296;28;20203;-58
2022/01/12 01:01:35;;;;;;;9.80;7.33;;;;;;;3.38;74.80;100149.97;5052372;28;20189;-58
2022/01/12 01:04:04;;;;;;;10.70;7.73;;;;;;;3.41;73.50;100157.78;5052321;28;20193;-58
2022/01/12 01:06:32;;;;;;;10.57;8.07;;;;;;;3.43;74.16;100140.94;5052229;28;20279;-58
2022/01/12 01:08:59;;;;;;;12.13;7.80;;;;;;;3.47;74.92;100155.56;5052494;28;20288;-58
2022/01/12 01:11:26;;;;;;;10.57;7.00;;;;;;;3.43;74.15;100138.41;5052268;28;20630;-58
2022/01/12 01:13:58;;;;;;;8.97;6.70;;;;;;;3.50;73.47;100154.84;5052169;28;20664;-58
2022/01/12 01:16:31;;;;;;;8.90;6.40;;;;;;;3.31;73.24;100112.34;5052160;28;20193;-58
2022/01/12 01:27:12;;;;;;;7.40;6.10;;;;;;;3.54;73.08;100156.78;5051542;28;20201;-57
2022/01/12 01:29:39;;;;;;;12.30;6.63;;;;;;;3.49;73.47;100153.09;5051678;28;20284;-57
2022/01/12 01:32:08;;;;;;;8.83;6.60;;;;;;;3.49;74.25;100153.97;5051901;28;20576;-57
2022/01/12 01:34:42;;;;;;;11.53;7.27;;;;;;;3.50;73.48;100162.47;5051607;28;20197;-57
2022/01/12 01:37:11;;;;;;;10.70;6.60;;;;;;;3.51;74.21;100156.63;5050924;28;20285;-57
2022/01/12 01:39:38;;;;;;;10.07;7.73;;;;;;;3.44;74.83;100159.59;5051811;28;20295;-57
2022/01/12 01:42:14;;;;;;;8.40;6.57;;;;;;;3.42;74.69;100157.00;5051703;28;20651;-57
2022/01/12 01:55:41;;;;;;;10.90;6.97;;;;;;;3.21;74.74;100165.97;5044237;28;20200;-57
2022/01/12 01:58:08;;;;;;;10.77;7.53;;;;;;;3.23;75.21;100161.84;5051468;28;20196;-57
2022/01/12 02:00:36;;;;;;;10.30;7.57;;;;;;;3.18;74.49;100167.47;5051119;28;20191;-57
2022/01/12 02:03:03;;;;;;;11.30;8.20;;;;;;;3.07;74.82;100171.94;5051071;28;20541;-57
2022/01/12 02:05:31;;;;;;;11.87;7.63;;;;;;;3.06;74.81;100174.38;5051150;28;20186;-57
2022/01/12 02:08:00;;;;;;;10.47;7.87;;;;;;;3.01;74.68;100170.72;5051214;28;20287;-57
2022/01/12 02:10:27;;;;;;;10.07;8.33;;;;;;;3.04;75.39;100173.41;5051105;28;20220;-57
2022/01/12 02:12:54;;;;;;;10.40;7.83;;;;;;;2.90;74.76;100168.44;5050858;28;20199;-58
2022/01/12 02:15:23;;;;;;;12.37;7.93;;;;;;;2.96;74.86;100193.28;5051189;28;20196;-58
2022/01/12 02:40:02;;;;;;;11.03;8.43;;;;;;;2.74;72.57;100218.22;5050442;28;20188;-58
2022/01/12 02:42:29;;;;;;;13.43;8.63;;;;;;;2.76;72.83;100209.03;5050493;28;20192;-57
2022/01/12 02:50:45;;;;;;;12.87;8.20;;;;;;;2.57;73.76;100226.50;5050397;28;20272;-57
2022/01/12 02:55:56;;;;;;;11.23;8.10;;;;;;;2.67;72.57;100234.72;5037605;28;20211;-57
2022/01/12 02:58:23;;;;;;;10.70;7.83;;;;;;;2.60;71.98;100237.69;5050379;28;20196;-57
2022/01/12 03:03:38;;;;;;;11.27;8.20;;;;;;;2.46;72.73;100207.22;5029407;28;20291;-58
2022/01/12 03:06:07;;;;;;;12.20;7.97;;;;;;;2.68;72.47;100240.69;5050536;28;20192;-58
2022/01/12 03:08:37;;;;;;;11.97;8.83;;;;;;;2.62;72.50;100236.13;5050070;28;20559;-58
2022/01/12 03:11:06;;;;;;;11.70;8.03;;;;;;;2.60;72.19;100242.78;5050159;28;20216;-58
2022/01/12 03:13:34;;;;;;;12.80;8.87;;;;;;;2.19;73.63;100169.31;5049761;28;20443;-58
2022/01/12 03:16:02;;;;;;;12.43;8.37;;;;;;;2.73;73.29;100252.84;5050209;28;20630;-58
2022/01/12 03:18:29;;;;;;;12.90;8.67;;;;;;;2.83;73.48;100247.53;5051377;28;20200;-58
2022/01/12 03:20:56;;;;;;;12.63;8.73;;;;;;;2.74;72.51;100249.53;5054259;28;20195;-58
2022/01/12 03:23:23;;;;;;;10.87;7.77;;;;;;;2.78;72.45;100253.13;5054256;28;20274;-58
2022/01/12 03:25:51;;;;;;;10.53;8.13;;;;;;;2.71;72.11;100243.41;5054102;28;20235;-58
2022/01/12 03:28:18;;;;;;;11.57;8.23;;;;;;;2.49;71.70;100222.63;5053863;28;20252;-58
2022/01/12 03:30:53;;;;;;;12.20;7.93;;;;;;;2.66;72.40;100252.41;5054308;28;20307;-58
2022/01/12 03:33:36;;;;;;;11.60;8.03;;;;;;;2.61;72.78;100259.72;5054034;28;20192;-58
2022/01/12 03:36:24;;;;;;;11.00;8.70;;;;;;;2.69;73.11;100261.06;5054080;28;20192;-58
2022/01/12 03:38:52;;;;;;;11.20;8.30;;;;;;;2.75;73.65;100263.06;5053964;28;20196;-58
2022/01/12 03:41:21;;;;;;;11.83;8.07;;;;;;;2.73;72.53;100257.94;5054061;28;20184;-58
2022/01/12 03:43:49;;;;;;;10.20;7.90;;;;;;;2.65;71.80;100258.25;5053738;28;20192;-58
2022/01/12 03:46:18;;;;;;;11.70;8.07;;;;;;;2.61;71.94;100264.81;5053798;28;20192;-57
2022/01/12 03:48:45;;;;;;;13.60;8.40;;;;;;;2.57;71.75;100267.06;5053728;28;20196;-58
2022/01/12 03:51:12;;;;;;;14.03;10.07;;;;;;;2.60;71.74;100272.34;5053835;28;20330;-57
2022/01/12 03:53:39;;;;;;;15.40;9.17;;;;;;;2.45;71.60;100277.34;5053893;28;20192;-58
2022/01/12 03:56:06;;;;;;;12.23;9.20;;;;;;;2.45;71.56;100279.00;5053584;28;20686;-58
2022/01/12 03:58:34;;;;;;;16.77;9.57;;;;;;;2.52;72.45;100281.16;5053737;28;20300;-58
2022/01/12 04:01:01;;;;;;;22.97;12.90;;;;;;;2.46;72.58;100285.84;5053921;28;20192;-58
2022/01/12 04:03:29;;;;;;;15.53;10.57;;;;;;;2.40;72.19;100283.81;5053707;28;20200;-58
2022/01/12 04:08:41;;;;;;;13.80;10.10;;;;;;;2.17;72.35;100299.28;5053625;28;20259;-57
2022/01/12 04:11:07;;;;;;;13.60;8.63;;;;;;;2.24;72.76;100302.28;5053544;28;20308;-58
2022/01/12 04:13:36;;;;;;;13.93;8.33;;;;;;;2.30;72.80;100296.72;5053560;28;20208;-58
2022/01/12 04:16:07;;;;;;;11.90;8.70;;;;;;;2.25;73.33;100308.25;5053265;28;20200;-57
2022/01/12 04:18:34;;;;;;;9.93;7.70;;;;;;;2.11;73.29;100294.72;5053696;28;20196;-57
2022/01/12 04:21:03;;;;;;;11.60;9.57;;;;;;;2.26;72.89;100317.56;5052856;28;20431;-57
2022/01/12 04:23:31;;;;;;;10.73;8.47;;;;;;;2.36;72.89;100325.00;5053365;28;20195;-58
2022/01/12 04:25:59;;;;;;;12.00;8.07;;;;;;;2.39;72.55;100318.44;5053190;28;20215;-57
2022/01/12 04:28:30;;;;;;;12.33;9.17;;;;;;;2.31;72.18;100313.66;5052979;28;20745;-57
2022/01/12 04:30:59;;;;;;;10.67;8.00;;;;;;;2.29;72.48;100328.78;5053067;28;20219;-58
2022/01/12 04:33:26;;;;;;;10.60;7.67;;;;;;;2.32;72.13;100335.72;5069918;28;20207;-57
2022/01/12 04:35:54;;;;;;;12.77;8.40;;;;;;;2.30;71.55;100330.56;5072797;28;20240;-58
2022/01/12 04:38:24;;;;;;;11.40;8.53;;;;;;;2.37;71.46;100340.28;5072753;28;20199;-58
2022/01/12 04:40:51;;;;;;;11.97;8.50;;;;;;;2.38;70.73;100347.13;5072787;28;20271;-57
2022/01/12 04:43:18;;;;;;;10.30;7.60;;;;;;;2.45;70.49;100352.53;5072479;28;20203;-58
2022/01/12 04:46:08;;;;;;;13.10;8.13;;;;;;;2.46;69.96;100364.47;5072895;28;20187;-58
2022/01/12 04:48:49;;;;;;;12.90;7.90;;;;;;;2.38;70.51;100364.88;5072647;28;20183;-58
2022/01/12 04:51:16;;;;;;;11.73;7.50;;;;;;;2.45;70.57;100363.56;5072488;28;20222;-57
2022/01/12 04:53:43;;;;;;;12.43;8.00;;;;;;;2.42;69.97;100365.91;5072576;28;20196;-57
2022/01/12 04:56:10;;;;;;;10.90;8.27;;;;;;;2.35;70.26;100367.22;5072782;28;20218;-57
2022/01/12 04:58:37;;;;;;;11.30;7.87;;;;;;;2.26;71.09;100375.88;5072541;28;20202;-57
2022/01/12 05:01:08;;;;;;;13.77;8.30;;;;;;;2.34;71.37;100375.59;5072414;28;20188;-57
2022/01/12 05:09:13;;;;;;;13.73;8.73;;;;;;;2.30;70.41;100391.41;5082384;28;20182;-57
2022/01/12 05:14:25;;;;;;;12.38;10.75;;;;;;;2.42;71.15;100396.34;5070851;28;20459;-58
2022/01/12 05:16:53;;;;;;;15.23;9.07;;;;;;;2.45;70.44;100394.00;5072090;28;20192;-57
2022/01/12 05:19:21;;;;;;;12.40;8.50;;;;;;;2.29;70.67;100391.28;5071912;28;20195;-57
2022/01/12 05:21:48;;;;;;;14.00;9.77;;;;;;;2.28;70.86;100398.03;5071978;28;20295;-58
2022/01/12 05:24:15;;;;;;;13.03;9.13;;;;;;;2.28;70.81;100400.56;5071856;28;20570;-58
2022/01/12 05:26:42;;;;;;;11.67;8.70;;;;;;;2.29;70.52;100407.38;5071856;28;20214;-57
2022/01/12 05:29:09;;;;;;;10.80;8.23;;;;;;;2.27;69.93;100403.00;5071522;28;20325;-57
2022/01/12 05:31:36;;;;;;;14.50;9.53;;;;;;;2.31;70.87;100410.00;5071467;28;20575;-57
2022/01/12 05:34:03;;;;;;;11.83;9.10;;;;;;;2.34;69.82;100408.56;5071706;28;20188;-57
2022/01/12 05:36:32;;;;;;;12.50;8.63;;;;;;;2.30;69.72;100415.88;5071367;28;20273;-57
2022/01/12 05:39:00;;;;;;;12.20;8.90;;;;;;;2.28;69.78;100422.53;5071809;28;20231;-57
2022/01/12 05:41:28;;;;;;;12.17;8.30;;;;;;;2.32;68.79;100421.91;5071016;28;20194;-57
2022/01/12 05:43:56;;;;;;;10.93;8.77;;;;;;;2.16;69.55;100402.34;5070996;28;20582;-57
2022/01/12 05:46:25;;;;;;;14.77;9.10;;;;;;;2.34;69.11;100436.44;5071617;28;20188;-57
2022/01/12 05:51:39;;;;;;;14.80;10.37;;;;;;;2.36;68.59;100444.16;5071602;28;21072;-58
2022/01/12 05:54:06;;;;;;;14.20;9.93;;;;;;;2.35;68.81;100450.00;5071314;28;20538;-57
2022/01/12 05:56:32;;;;;;;11.67;8.50;;;;;;;2.32;68.73;100449.81;5070979;28;20191;-57
2022/01/12 05:58:59;;;;;;;11.83;8.00;;;;;;;2.41;68.52;100459.66;5071121;28;20198;-57
2022/01/12 06:01:26;;;;;;;12.93;9.10;;;;;;;2.45;68.24;100459.94;5071653;28;20191;-58
2022/01/12 06:03:53;;;;;;;11.63;7.63;;;;;;;2.39;67.98;100464.63;5071052;28;20574;-57
2022/01/12 06:06:20;;;;;;;11.40;7.53;;;;;;;2.28;68.07;100470.69;5071154;28;20249;-57
2022/01/12 06:08:49;;;;;;;13.10;9.57;;;;;;;2.37;67.89;100473.78;5070779;28;20287;-57
2022/01/12 06:11:16;;;;;;;12.17;8.27;;;;;;;2.31;66.85;100481.00;5070526;28;20666;-56
2022/01/12 06:13:43;;;;;;;11.33;8.40;;;;;;;2.30;67.50;100486.88;5070730;28;20310;-56
2022/01/12 06:16:10;;;;;;;11.33;9.40;;;;;;;2.19;67.61;100490.38;5070747;28;20192;-58
2022/01/12 06:18:36;;;;;;;11.33;8.43;;;;;;;2.22;67.37;100488.91;5070439;28;20187;-57
2022/01/12 06:21:03;;;;;;;14.67;9.60;;;;;;;2.20;67.57;100497.19;5070197;28;20192;-57
2022/01/12 06:23:30;;;;;;;13.27;8.97;;;;;;;2.19;68.06;100497.97;5070367;28;20195;-57
2022/01/12 06:25:59;;;;;;;11.30;8.47;;;;;;;2.16;67.03;100511.34;5070500;28;20191;-57
2022/01/12 06:28:39;;;;;;;10.50;7.30;;;;;;;2.10;66.47;100505.84;5070130;28;20242;-57
2022/01/12 06:31:11;;;;;;;13.67;9.13;;;;;;;2.10;66.93;100521.06;5070254;28;20283;-56
2022/01/12 06:33:38;;;;;;;13.93;9.37;;;;;;;2.15;67.94;100523.88;5070640;28;20269;-57
2022/01/12 06:36:06;;;;;;;13.73;9.50;;;;;;;2.19;67.61;100525.88;5070432;28;20196;-57
2022/01/12 06:38:33;;;;;;;12.63;9.43;;;;;;;2.25;67.81;100534.72;5070127;28;20199;-57
2022/01/12 06:41:01;;;;;;;14.87;9.80;;;;;;;2.32;68.00;100541.09;5070228;28;20203;-57
2022/01/12 06:43:29;;;;;;;12.77;9.10;;;;;;;2.36;67.19;100536.31;5070051;28;20221;-57
2022/01/12 06:45:56;;;;;;;14.23;11.30;;;;;;;2.37;67.54;100542.25;5069430;28;20524;-57
2022/01/12 06:48:23;;;;;;;14.47;9.80;;;;;;;2.46;66.50;100547.94;5069912;28;20533;-57
2022/01/12 06:50:50;;;;;;;13.90;9.60;;;;;;;2.26;66.69;100556.78;5070387;28;20218;-57
2022/01/12 06:53:17;;;;;;;12.83;9.37;;;;;;;2.36;67.69;100555.75;5069692;28;20216;-57
2022/01/12 06:55:44;;;;;;;16.90;10.47;;;;;;;2.45;68.01;100553.78;5069850;28;20279;-57
2022/01/12 06:58:13;;;;;;;11.47;9.00;;;;;;;2.42;66.54;100565.41;5070047;28;20188;-57
2022/01/12 07:00:40;;;;;;;14.87;10.07;;;;;;;2.32;65.64;100566.44;5069960;28;20192;-57
2022/01/12 07:03:07;;;;;;;13.27;9.97;;;;;;;2.28;65.80;100577.19;5069794;28;20191;-59
2022/01/12 07:05:34;;;;;;;12.10;9.00;;;;;;;2.25;65.00;100576.97;5069264;28;20645;-57
2022/01/12 07:08:01;;;;;;;16.03;10.93;;;;;;;2.22;65.92;100556.50;5069744;28;20274;-57
2022/01/12 07:10:28;;;;;;;13.17;9.77;;;;;;;2.32;65.28;100581.66;5069900;28;20223;-57
2022/01/12 07:12:55;;;;;;;13.80;10.30;;;;;;;2.38;65.67;100582.06;5069766;28;20577;-57
2022/01/12 07:15:24;;;;;;;15.67;10.00;;;;;;;2.39;65.75;100582.16;5069696;28;20237;-57
2022/01/12 07:17:51;;;;;;;11.43;8.80;;;;;;;2.46;66.19;100588.50;5069511;28;20191;-57
2022/01/12 07:20:18;;;;;;;15.07;10.63;;;;;;;2.49;64.37;100587.84;5069594;28;20192;-57
2022/01/12 07:22:45;;;;;;;18.00;11.17;;;;;;;2.45;64.13;100593.47;5069435;28;20198;-57
2022/01/12 07:25:12;;;;;;;15.20;10.07;;;;;;;2.37;64.26;100598.03;5069546;28;20294;-57
2022/01/12 07:27:40;;;;;;;14.93;9.07;;;;;;;2.33;63.73;100602.03;5069667;28;20223;-58
2022/01/12 07:30:09;;;;;;;19.90;12.27;;;;;;;2.33;63.86;100599.50;5069845;28;20287;-57
2022/01/12 07:32:37;;;;;;;18.55;12.02;;;;;;;2.39;64.48;100610.03;5068873;28;20481;-57
2022/01/12 07:35:05;;;;;;;16.60;9.90;;;;;;;2.33;64.03;100611.31;5069602;28;20195;-57
2022/01/12 07:37:33;;;;;;;18.40;12.27;;;;;;;2.40;64.25;100613.47;5069706;28;20191;-58
2022/01/12 07:40:00;;;;;;;12.27;9.80;;;;;;;2.43;64.84;100612.78;5069212;28;20615;-57
2022/01/12 07:42:27;;;;;;;14.83;10.07;;;;;;;2.50;66.35;100604.81;5071752;28;20658;-57
2022/01/12 07:44:59;;;;;;;15.23;10.90;;;;;;;2.47;66.46;100620.72;5079759;28;20194;-57
2022/01/12 07:47:26;;;;;;;20.67;14.00;;;;;;;2.47;65.07;100624.91;5081451;28;20530;-57
2022/01/12 07:49:56;;;;;;;18.00;12.33;;;;;;;2.55;64.99;100626.28;5089851;28;20569;-58
2022/01/12 07:52:23;;;;;;;17.40;10.97;;;;;;;2.47;63.54;100630.88;5089911;28;20229;-57
2022/01/12 07:54:50;;;;;;;16.80;11.53;;;;;;;2.56;64.28;100630.56;5089989;28;20191;-58
2022/01/12 07:57:17;;;;;;;13.83;9.57;;;;;;;2.61;64.01;100640.22;5079760;28;20189;-57
2022/01/12 07:59:45;;;;;;;14.47;9.80;;;;;;;2.66;64.10;100643.09;5078677;28;20196;-58
2022/01/12 08:02:12;;;;;;;15.60;9.23;;;;;;;2.71;63.46;100649.34;5080183;28;20295;-57
2022/01/12 08:04:39;;;;;;;12.70;8.83;;;;;;;2.66;62.57;100649.06;5077428;28;20673;-57
2022/01/12 08:07:10;;;;;;;12.57;7.67;;;;;;;2.30;62.75;100599.31;5083485;28;20180;-57
2022/01/12 08:09:37;;;;;;;10.80;8.33;;;;;;;2.57;62.87;100658.59;5072550;28;20353;-57
2022/01/12 08:12:05;;;;;;;15.00;8.87;;;;;;;2.71;62.52;100668.00;5071870;28;20211;-57
2022/01/12 08:14:32;;;;;;;11.30;8.73;;;;;;;2.69;63.45;100653.44;5071805;28;20192;-57
2022/01/12 08:16:59;;;;;;;13.40;8.40;;;;;;;2.82;63.59;100667.03;5072153;28;20270;-57
2022/01/12 08:19:27;;;;;;;14.53;8.87;;;;;;;2.89;62.70;100671.72;5072383;28;20184;-57
2022/01/12 08:21:54;;;;;;;13.27;9.27;;;;;;;2.92;61.62;100671.91;5071763;28;20219;-57
2022/01/12 08:24:23;;;;;;;13.45;10.07;;;;;;;2.75;61.93;100638.59;5071525;28;20438;-56
2022/01/12 08:26:50;;;;;;;14.80;9.20;;;;;;;2.95;60.95;100679.72;5071864;28;20648;-57
2022/01/12 08:29:17;;;;;;;13.50;8.87;;;;;;;2.86;60.96;100668.97;5071353;28;20685;-57
2022/01/12 08:31:45;;;;;;;14.90;9.43;;;;;;;2.97;62.19;100672.19;5072059;28;20347;-58
2022/01/12 08:34:13;;;;;;;12.93;9.03;;;;;;;3.06;63.08;100682.06;5069181;28;20199;-57
2022/01/12 08:36:41;;;;;;;18.70;9.30;;;;;;;3.05;62.28;100668.50;5071919;28;20192;-57
2022/01/12 08:39:09;;;;;;;16.43;9.80;;;;;;;3.13;63.14;100686.78;5071686;28;20273;-56
2022/01/12 08:41:37;;;;;;;16.10;9.20;;;;;;;3.19;60.75;100687.16;5069489;28;20181;-56
2022/01/12 08:44:05;;;;;;;15.20;10.20;;;;;;;3.12;60.30;100679.94;5071543;28;20283;-57
2022/01/12 08:46:32;;;;;;;12.37;8.10;;;;;;;3.14;60.33;100686.00;5071415;28;20180;-57
2022/01/12 08:48:59;;;;;;;11.90;8.90;;;;;;;3.14;59.02;100686.88;5071766;28;20270;-57
2022/01/12 08:51:26;;;;;;;16.33;9.03;;;;;;;3.25;59.84;100692.63;5072267;28;20196;-57
2022/01/12 08:53:53;;;;;;;13.20;8.63;;;;;;;3.27;59.40;100691.09;5072538;28;20223;-59
2022/01/12 08:56:20;;;;;;;11.90;8.03;;;;;;;3.23;59.09;100696.75;5072275;28;20192;-60
2022/01/12 08:58:49;;;;;;;11.67;9.03;;;;;;;3.33;59.47;100697.44;5071930;28;20651;-59
2022/01/12 09:01:17;;;;;;;14.13;9.20;;;;;;;3.34;58.74;100693.22;5071900;28;20570;-59
2022/01/12 09:03:44;;;;;;;11.03;8.97;;;;;;;3.43;58.83;100696.38;5071516;28;20217;-59
2022/01/12 09:06:11;;;;;;;16.03;10.53;;;;;;;3.52;59.65;100695.28;5071881;28;20260;-60
2022/01/12 09:08:40;;;;;;;14.60;8.60;;;;;;;3.50;59.25;100701.91;5080176;28;20212;-60
2022/01/12 09:11:08;;;;;;;11.97;9.10;;;;;;;3.53;59.67;100694.50;5082010;28;20188;-60
2022/01/12 09:13:35;;;;;;;15.33;8.97;;;;;;;3.35;58.32;100695.84;5091230;28;20309;-63
2022/01/12 09:16:06;;;;;;;12.43;9.13;;;;;;;3.35;59.73;100687.38;5091178;28;20278;-59
2022/01/12 09:18:34;;;;;;;12.77;9.40;;;;;;;3.42;59.09;100689.50;5092014;28;20187;-60
2022/01/12 09:21:01;;;;;;;12.23;8.60;;;;;;;3.53;59.00;100694.50;5089591;28;20190;-59
2022/01/12 09:23:28;;;;;;;10.57;8.13;;;;;;;3.54;59.29;100696.22;5073504;28;20286;-60
2022/01/12 09:25:55;;;;;;;14.40;8.70;;;;;;;3.55;58.10;100704.75;5071308;28;20228;-60
2022/01/12 09:28:22;;;;;;;14.97;9.33;;;;;;;3.65;58.84;100694.41;5070892;28;20221;-59
2022/01/12 09:30:51;;;;;;;14.80;10.67;;;;;;;3.67;59.30;100692.81;5071294;28;20184;-59
2022/01/12 09:33:19;;;;;;;12.40;9.20;;;;;;;3.68;57.53;100703.88;5071575;28;20227;-60
2022/01/12 09:35:49;;;;;;;14.30;9.47;;;;;;;3.67;58.19;100697.00;5071404;28;20638;-60
2022/01/12 09:38:16;;;;;;;18.27;11.57;;;;;;;3.67;57.14;100697.00;5071239;28;20192;-60
2022/01/12 09:40:45;;;;;;;13.53;10.40;;;;;;;3.68;57.28;100697.09;5071318;28;20284;-60
2022/01/12 09:43:14;;;;;;;17.07;10.37;;;;;;;3.67;58.02;100695.34;5070731;28;20688;-60
2022/01/12 09:45:45;;;;;;;11.33;8.20;;;;;;;3.72;57.08;100693.97;5069893;28;20200;-61
2022/01/12 09:48:12;;;;;;;14.30;10.70;;;;;;;3.77;56.91;100695.13;5068936;28;20245;-60
2022/01/12 09:50:41;;;;;;;13.03;9.23;;;;;;;3.73;55.98;100689.78;5069488;28;20261;-60
2022/01/12 09:53:08;;;;;;;15.93;10.17;;;;;;;3.78;57.48;100688.41;5070178;28;20227;-59
2022/01/12 09:55:35;;;;;;;15.60;9.60;;;;;;;3.76;56.99;100690.84;5070240;28;20203;-59
2022/01/12 09:58:02;;;;;;;14.67;9.73;;;;;;;3.83;56.37;100692.09;5070536;28;20355;-60
2022/01/12 10:00:29;;;;;;;17.60;10.90;;;;;;;3.58;56.76;100637.22;5070393;28;20548;-60
2022/01/12 10:02:57;;;;;;;15.53;10.57;;;;;;;3.94;56.13;100683.47;5070409;28;20194;-60
2022/01/12 10:05:32;;;;;;;18.57;11.30;;;;;;;3.70;56.43;100656.56;5067875;28;20242;-60
2022/01/12 10:08:10;;;;;;;13.40;10.30;;;;;;;3.96;55.46;100676.81;5069208;28;20513;-60
2022/01/12 10:10:37;;;;;;;12.47;9.00;;;;;;;4.07;55.97;100681.75;5069688;28;20185;-60
2022/01/12 10:13:04;;;;;;;14.83;11.67;;;;;;;4.10;56.36;100676.88;5068064;28;20266;-60
2022/01/12 10:15:31;;;;;;;14.87;9.70;;;;;;;3.99;56.25;100677.88;5070338;28;20186;-60
2022/01/12 10:18:02;;;;;;;14.97;9.67;;;;;;;4.05;56.90;100675.72;5071103;28;20200;-60
2022/01/12 10:20:30;;;;;;;13.17;9.63;;;;;;;4.12;57.38;100680.38;5070457;28;20200;-61
2022/01/12 10:23:01;;;;;;;13.63;9.83;;;;;;;4.16;55.89;100679.78;5070834;28;20190;-59
2022/01/12 10:25:31;;;;;;;14.57;9.90;;;;;;;4.23;55.66;100673.38;5070636;28;20204;-60
2022/01/12 10:27:59;;;;;;;12.77;9.13;;;;;;;4.30;56.03;100675.53;5069889;28;20233;-59
2022/01/12 10:30:29;;;;;;;11.20;8.30;;;;;;;4.31;55.84;100677.28;5069451;28;20636;-58
2022/01/12 10:33:01;;;;;;;11.63;8.40;;;;;;;4.23;54.33;100682.69;5070263;28;20698;-57
2022/01/12 10:35:30;;;;;;;11.13;8.27;;;;;;;4.15;54.17;100680.56;5070836;28;20300;-58
2022/01/12 10:38:06;;;;;;;15.17;8.37;;;;;;;4.05;53.71;100683.34;5051994;28;20682;-58
2022/01/12 10:40:46;;;;;;;10.47;7.73;;;;;;;3.97;55.61;100673.47;5066568;28;20208;-57
2022/01/12 10:43:36;;;;;;;11.60;8.33;;;;;;;3.94;54.58;100674.19;5070063;28;20206;-57
2022/01/12 10:46:05;;;;;;;18.87;9.00;;;;;;;3.98;55.98;100680.34;5069715;28;20717;-58
2022/01/12 10:48:45;;;;;;;10.80;8.10;;;;;;;3.91;56.78;100689.25;5069973;28;20556;-58
2022/01/12 10:51:14;;;;;;;11.97;8.77;;;;;;;3.97;57.09;100681.13;5068009;28;20196;-58
2022/01/12 10:53:42;;;;;;;13.13;8.20;;;;;;;3.98;56.56;100691.38;5069941;28;20219;-57
2022/01/12 10:56:12;;;;;;;10.97;8.37;;;;;;;3.91;56.49;100681.63;5069884;28;20275;-57
2022/01/12 10:58:41;;;;;;;13.10;8.47;;;;;;;4.01;56.09;100690.69;5070339;28;20199;-58
2022/01/12 11:01:09;;;;;;;18.60;11.77;;;;;;;3.97;55.92;100684.53;5070354;28;20195;-58
2022/01/12 11:03:37;;;;;;;22.07;10.40;;;;;;;3.90;57.26;100679.84;5069859;28;20279;-58
2022/01/12 11:06:05;;;;;;;18.87;12.10;;;;;;;3.95;56.55;100681.03;5069810;28;20193;-57
2022/01/12 11:08:32;;;;;;;22.07;11.57;;;;;;;4.04;58.04;100685.78;5069697;28;20192;-58
2022/01/12 11:11:00;;;;;;;19.07;9.67;;;;;;;4.07;57.32;100680.88;5069765;28;20202;-58
2022/01/12 11:13:30;;;;;;;16.77;10.10;;;;;;;4.15;57.00;100679.69;5069682;28;20230;-58
2022/01/12 11:15:57;;;;;;;16.93;9.03;;;;;;;4.12;57.17;100685.47;5069786;28;20278;-58
2022/01/12 11:18:27;;;;;;;14.00;9.13;;;;;;;4.16;57.48;100687.41;5069501;28;20660;-58
2022/01/12 11:21:00;;;;;;;14.90;8.63;;;;;;;4.15;56.48;100677.13;5069588;28;20235;-57
2022/01/12 11:23:35;;;;;;;15.63;8.73;;;;;;;4.13;55.76;100677.06;5069714;28;20228;-58
2022/01/12 11:26:16;;;;;;;14.20;9.47;;;;;;;3.95;57.24;100642.91;5069598;28;20286;-57
2022/01/12 11:28:46;;;;;;;11.80;9.10;;;;;;;4.10;57.33;100676.88;5069421;28;20320;-57
2022/01/12 11:31:18;;;;;;;16.63;10.20;;;;;;;4.15;58.15;100667.84;5069353;28;20202;-57
2022/01/12 11:33:46;;;;;;;15.83;11.37;;;;;;;4.17;58.59;100678.13;5069787;28;20273;-57
2022/01/12 11:36:17;;;;;;;14.10;10.23;;;;;;;4.19;58.38;100668.91;5061949;28;20209;-58
2022/01/12 11:38:47;;;;;;;18.03;11.27;;;;;;;3.95;58.80;100629.31;5049864;28;20628;-57
2022/01/12 11:41:17;;;;;;;15.77;10.73;;;;;;;4.22;58.56;100670.75;5053610;28;20186;-58
2022/01/12 11:43:47;;;;;;;13.57;10.30;;;;;;;4.29;59.20;100672.88;5053517;28;20258;-57
2022/01/12 11:46:17;;;;;;;15.23;11.23;;;;;;;4.26;58.12;100667.63;5053767;28;20197;-58
2022/01/12 11:48:46;;;;;;;15.80;10.50;;;;;;;4.12;58.74;100662.56;5053655;28;20219;-57
2022/01/12 11:51:15;;;;;;;17.47;12.13;;;;;;;4.27;59.41;100672.78;5065466;28;20196;-57
2022/01/12 11:53:50;;;;;;;20.97;11.40;;;;;;;4.36;58.36;100672.47;5072547;28;20222;-58
2022/01/12 11:56:19;;;;;;;15.60;9.40;;;;;;;4.39;58.14;100677.75;5072514;28;20195;-57
2022/01/12 11:58:59;;;;;;;18.90;10.07;;;;;;;4.41;59.74;100671.06;5069889;28;20206;-58
2022/01/12 12:01:38;;;;;;;17.02;12.05;;;;;;;4.54;59.91;100681.16;5071203;28;20430;-58
2022/01/12 12:04:08;;;;;;;13.43;9.50;;;;;;;4.60;56.94;100684.09;5072280;28;20648;-57
2022/01/12 12:06:35;;;;;;;14.43;10.10;;;;;;;4.59;58.51;100682.31;5055756;28;20648;-58
2022/01/12 12:09:06;;;;;;;12.50;8.83;;;;;;;4.52;56.43;100673.47;5052927;28;20283;-58
2022/01/12 12:11:33;;;;;;;16.10;9.23;;;;;;;4.53;57.29;100676.88;5052845;28;20196;-57
2022/01/12 12:14:04;;;;;;;15.27;9.40;;;;;;;4.58;57.71;100681.47;5052960;28;20240;-57
2022/01/12 12:16:34;;;;;;;17.07;11.47;;;;;;;4.63;58.87;100671.53;5052705;28;20291;-57
2022/01/12 12:19:03;;;;;;;13.90;9.73;;;;;;;4.67;57.96;100678.53;5052609;28;20275;-57
2022/01/12 12:21:31;;;;;;;14.23;10.13;;;;;;;4.63;57.11;100682.59;5052712;28;20942;-61
2022/01/12 12:24:11;;;;;;;19.93;10.13;;;;;;;4.51;58.00;100669.16;5052725;28;20194;-57
2022/01/12 12:26:45;;;;;;;15.73;10.10;;;;;;;4.53;56.84;100681.97;5052706;28;20253;-57
2022/01/12 12:29:15;;;;;;;16.40;10.40;;;;;;;4.56;57.49;100684.72;5052716;28;20232;-58
2022/01/12 12:31:46;;;;;;;19.67;12.73;;;;;;;4.53;57.46;100682.84;5052904;28;20205;-58
2022/01/12 12:34:14;;;;;;;17.30;12.20;;;;;;;4.53;58.39;100689.63;5052466;28;20229;-57
2022/01/12 12:36:41;;;;;;;22.33;13.83;;;;;;;4.62;58.63;100685.94;5066703;28;20261;-57
2022/01/12 12:39:10;;;;;;;21.93;14.60;;;;;;;4.67;59.53;100687.06;5072908;28;20201;-58
2022/01/12 12:41:41;;;;;;;18.73;11.30;;;;;;;4.67;58.78;100686.19;5072587;28;20196;-59
2022/01/12 12:44:22;;;;;;;17.37;12.60;;;;;;;4.68;59.62;100687.94;5072474;28;20199;-59
2022/01/12 12:46:50;;;;;;;19.50;13.80;;;;;;;4.55;60.09;100693.13;5072499;28;20201;-59